sensor_id;sensor_type;location;lat;lon;timestamp;pressure;altitude;pressure_sealevel;temperature;humidity
57192;BME280;43052;52.588;13.396;2023-03-04T00:00:58;101398.06;;;1.01;70.77
57192;BME280;43052;52.588;13.396;2023-03-04T00:03:23;101398.88;;;1.00;71.08
57192;BME280;43052;52.588;13.396;2023-03-04T00:05:48;101390.88;;;0.94;71.15
57192;BME280;43052;52.588;13.396;2023-03-04T00:08:14;101389.06;;;0.91;71.39
57192;BME280;43052;52.588;13.396;2023-03-04T00:10:39;101382.53;;;1.00;71.26
57192;BME280;43052;52.588;13.396;2023-03-04T00:13:04;101389.38;;;1.19;71.80
57192;BME280;43052;52.588;13.396;2023-03-04T00:15:29;101380.84;;;1.41;71.79
57192;BME280;43052;52.588;13.396;2023-03-04T00:17:54;101377.28;;;1.59;71.41
57192;BME280;43052;52.588;13.396;2023-03-04T00:20:19;101378.69;;;1.73;71.71
57192;BME280;43052;52.588;13.396;2023-03-04T00:22:45;101389.66;;;1.88;71.62
57192;BME280;43052;52.588;13.396;2023-03-04T00:25:10;101391.03;;;2.01;71.55
57192;BME280;43052;52.588;13.396;2023-03-04T00:27:35;101387.22;;;2.14;71.75
57192;BME280;43052;52.588;13.396;2023-03-04T00:30:00;101385.81;;;2.23;71.85
57192;BME280;43052;52.588;13.396;2023-03-04T00:32:25;101372.44;;;2.33;71.67
57192;BME280;43052;52.588;13.396;2023-03-04T00:34:50;101380.53;;;2.42;71.92
57192;BME280;43052;52.588;13.396;2023-03-04T00:37:16;101374.88;;;2.53;71.60
57192;BME280;43052;52.588;13.396;2023-03-04T00:39:41;101363.09;;;2.59;71.64
57192;BME280;43052;52.588;13.396;2023-03-04T00:42:06;101355.28;;;2.58;71.31
57192;BME280;43052;52.588;13.396;2023-03-04T00:44:31;101361.44;;;2.61;71.64
57192;BME280;43052;52.588;13.396;2023-03-04T00:46:56;101368.47;;;2.65;71.32
57192;BME280;43052;52.588;13.396;2023-03-04T00:49:21;101358.97;;;2.64;71.16
57192;BME280;43052;52.588;13.396;2023-03-04T00:51:47;101365.06;;;2.66;71.31
57192;BME280;43052;52.588;13.396;2023-03-04T00:54:12;101366.13;;;2.72;71.08
57192;BME280;43052;52.588;13.396;2023-03-04T00:56:37;101368.22;;;2.82;71.10
57192;BME280;43052;52.588;13.396;2023-03-04T00:59:02;101356.22;;;2.84;70.84
57192;BME280;43052;52.588;13.396;2023-03-04T01:01:28;101363.09;;;2.84;70.82
57192;BME280;43052;52.588;13.396;2023-03-04T01:03:53;101358.59;;;2.78;70.57
57192;BME280;43052;52.588;13.396;2023-03-04T01:06:18;101354.28;;;2.78;70.94
57192;BME280;43052;52.588;13.396;2023-03-04T01:08:43;101345.78;;;2.81;70.80
57192;BME280;43052;52.588;13.396;2023-03-04T01:11:08;101356.34;;;2.87;70.70
57192;BME280;43052;52.588;13.396;2023-03-04T01:13:33;101351.34;;;2.92;70.29
57192;BME280;43052;52.588;13.396;2023-03-04T01:15:59;101351.34;;;2.92;70.46
57192;BME280;43052;52.588;13.396;2023-03-04T01:18:24;101346.88;;;2.88;70.15
57192;BME280;43052;52.588;13.396;2023-03-04T01:20:49;101340.06;;;2.90;70.39
57192;BME280;43052;52.588;13.396;2023-03-04T01:23:14;101339.41;;;2.95;70.24
57192;BME280;43052;52.588;13.396;2023-03-04T01:25:40;101327.31;;;2.94;70.36
57192;BME280;43052;52.588;13.396;2023-03-04T01:28:05;101336.00;;;2.96;70.19
57192;BME280;43052;52.588;13.396;2023-03-04T01:30:30;101333.38;;;2.95;70.00
57192;BME280;43052;52.588;13.396;2023-03-04T01:32:55;101341.03;;;2.93;70.12
57192;BME280;43052;52.588;13.396;2023-03-04T01:35:20;101329.94;;;2.96;70.10
57192;BME280;43052;52.588;13.396;2023-03-04T01:37:45;101318.84;;;2.98;70.23
57192;BME280;43052;52.588;13.396;2023-03-04T01:40:12;101321.63;;;3.05;70.13
57192;BME280;43052;52.588;13.396;2023-03-04T01:42:37;101312.31;;;3.10;70.06
57192;BME280;43052;52.588;13.396;2023-03-04T01:45:03;101314.19;;;3.14;69.79
57192;BME280;43052;52.588;13.396;2023-03-04T01:47:29;101309.03;;;3.14;69.62
57192;BME280;43052;52.588;13.396;2023-03-04T01:49:55;101305.53;;;3.13;69.99
57192;BME280;43052;52.588;13.396;2023-03-04T01:52:21;101311.59;;;3.14;69.79
57192;BME280;43052;52.588;13.396;2023-03-04T01:54:47;101303.91;;;3.16;70.07
57192;BME280;43052;52.588;13.396;2023-03-04T01:57:20;101305.84;;;3.23;69.67
57192;BME280;43052;52.588;13.396;2023-03-04T01:59:46;101305.13;;;3.27;69.87
57192;BME280;43052;52.588;13.396;2023-03-04T02:02:12;101308.53;;;3.26;69.86
57192;BME280;43052;52.588;13.396;2023-03-04T02:04:38;101297.53;;;3.32;69.85
57192;BME280;43052;52.588;13.396;2023-03-04T02:07:03;101289.13;;;3.39;69.76
57192;BME280;43052;52.588;13.396;2023-03-04T02:09:30;101288.44;;;3.43;69.61
57192;BME280;43052;52.588;13.396;2023-03-04T02:11:55;101292.00;;;3.47;69.44
57192;BME280;43052;52.588;13.396;2023-03-04T02:14:20;101292.19;;;3.53;69.56
57192;BME280;43052;52.588;13.396;2023-03-04T02:16:46;101287.88;;;3.53;69.62
57192;BME280;43052;52.588;13.396;2023-03-04T02:19:13;101293.16;;;3.56;69.31
57192;BME280;43052;52.588;13.396;2023-03-04T02:21:40;101285.50;;;3.59;69.40
57192;BME280;43052;52.588;13.396;2023-03-04T02:26:30;101271.22;;;3.72;69.01
57192;BME280;43052;52.588;13.396;2023-03-04T02:28:57;101271.31;;;3.75;69.00
57192;BME280;43052;52.588;13.396;2023-03-04T02:33:51;101255.06;;;3.80;69.15
57192;BME280;43052;52.588;13.396;2023-03-04T02:36:16;101261.03;;;3.77;69.09
57192;BME280;43052;52.588;13.396;2023-03-04T02:38:41;101246.38;;;3.78;69.18
57192;BME280;43052;52.588;13.396;2023-03-04T02:41:08;101254.22;;;3.81;68.95
57192;BME280;43052;52.588;13.396;2023-03-04T02:43:36;101249.84;;;3.78;69.21
57192;BME280;43052;52.588;13.396;2023-03-04T02:46:01;101243.78;;;3.78;69.22
57192;BME280;43052;52.588;13.396;2023-03-04T02:48:26;101243.00;;;3.80;68.98
57192;BME280;43052;52.588;13.396;2023-03-04T02:50:52;101247.34;;;3.81;69.26
57192;BME280;43052;52.588;13.396;2023-03-04T02:53:18;101240.50;;;3.83;69.07
57192;BME280;43052;52.588;13.396;2023-03-04T02:55:44;101242.28;;;3.86;69.11
57192;BME280;43052;52.588;13.396;2023-03-04T02:58:10;101240.63;;;3.88;69.19
57192;BME280;43052;52.588;13.396;2023-03-04T03:00:35;101242.50;;;3.92;69.22
57192;BME280;43052;52.588;13.396;2023-03-04T03:03:00;101244.38;;;3.98;69.09
57192;BME280;43052;52.588;13.396;2023-03-04T03:05:26;101238.34;;;3.99;68.98
57192;BME280;43052;52.588;13.396;2023-03-04T03:07:53;101236.59;;;3.98;69.05
57192;BME280;43052;52.588;13.396;2023-03-04T03:10:18;101235.88;;;4.02;69.09
57192;BME280;43052;52.588;13.396;2023-03-04T03:12:44;101232.34;;;4.00;69.16
57192;BME280;43052;52.588;13.396;2023-03-04T03:15:09;101227.94;;;3.96;69.26
57192;BME280;43052;52.588;13.396;2023-03-04T03:17:34;101224.47;;;3.95;69.28
57192;BME280;43052;52.588;13.396;2023-03-04T03:20:00;101221.97;;;3.98;69.54
57192;BME280;43052;52.588;13.396;2023-03-04T03:22:25;101213.44;;;4.02;69.49
57192;BME280;43052;52.588;13.396;2023-03-04T03:24:50;101210.94;;;4.05;69.36
57192;BME280;43052;52.588;13.396;2023-03-04T03:27:15;101210.91;;;4.04;69.46
57192;BME280;43052;52.588;13.396;2023-03-04T03:29:40;101216.97;;;4.04;69.33
57192;BME280;43052;52.588;13.396;2023-03-04T03:32:05;101209.09;;;4.01;69.52
57192;BME280;43052;52.588;13.396;2023-03-04T03:34:31;101210.78;;;3.99;69.61
57192;BME280;43052;52.588;13.396;2023-03-04T03:36:56;101203.88;;;4.00;69.85
57192;BME280;43052;52.588;13.396;2023-03-04T03:39:22;101201.31;;;4.01;69.75
57192;BME280;43052;52.588;13.396;2023-03-04T03:41:47;101193.75;;;4.07;69.95
57192;BME280;43052;52.588;13.396;2023-03-04T03:44:12;101198.16;;;4.12;69.67
57192;BME280;43052;52.588;13.396;2023-03-04T03:46:37;101199.88;;;4.10;69.70
57192;BME280;43052;52.588;13.396;2023-03-04T03:49:02;101203.19;;;4.05;69.81
57192;BME280;43052;52.588;13.396;2023-03-04T03:51:28;101199.59;;;4.00;70.17
57192;BME280;43052;52.588;13.396;2023-03-04T03:53:53;101191.97;;;4.05;70.09
57192;BME280;43052;52.588;13.396;2023-03-04T03:56:18;101195.53;;;4.08;70.21
57192;BME280;43052;52.588;13.396;2023-03-04T03:58:43;101188.84;;;4.17;70.09
57192;BME280;43052;52.588;13.396;2023-03-04T04:01:08;101184.56;;;4.19;69.87
57192;BME280;43052;52.588;13.396;2023-03-04T04:03:34;101179.44;;;4.20;69.98
57192;BME280;43052;52.588;13.396;2023-03-04T04:05:59;101185.66;;;4.27;69.62
57192;BME280;43052;52.588;13.396;2023-03-04T04:08:24;101184.94;;;4.33;69.53
57192;BME280;43052;52.588;13.396;2023-03-04T04:10:49;101182.44;;;4.36;69.68
57192;BME280;43052;52.588;13.396;2023-03-04T04:13:14;101187.66;;;4.37;69.57
57192;BME280;43052;52.588;13.396;2023-03-04T04:15:39;101187.59;;;4.34;69.43
57192;BME280;43052;52.588;13.396;2023-03-04T04:18:05;101187.72;;;4.39;69.42
57192;BME280;43052;52.588;13.396;2023-03-04T04:20:31;101185.19;;;4.42;69.53
57192;BME280;43052;52.588;13.396;2023-03-04T04:22:56;101179.38;;;4.51;69.27
57192;BME280;43052;52.588;13.396;2023-03-04T04:25:21;101175.97;;;4.52;69.05
57192;BME280;43052;52.588;13.396;2023-03-04T04:27:46;101175.00;;;4.48;69.27
57192;BME280;43052;52.588;13.396;2023-03-04T04:30:11;101187.00;;;4.45;69.23
57192;BME280;43052;52.588;13.396;2023-03-04T04:32:36;101176.66;;;4.45;69.50
57192;BME280;43052;52.588;13.396;2023-03-04T04:35:02;101174.78;;;4.41;69.59
57192;BME280;43052;52.588;13.396;2023-03-04T04:37:27;101172.28;;;4.44;69.48
57192;BME280;43052;52.588;13.396;2023-03-04T04:39:52;101172.34;;;4.47;69.17
57192;BME280;43052;52.588;13.396;2023-03-04T04:42:19;101168.19;;;4.52;69.22
57192;BME280;43052;52.588;13.396;2023-03-04T04:44:44;101170.72;;;4.50;69.27
57192;BME280;43052;52.588;13.396;2023-03-04T04:47:09;101165.38;;;4.44;69.39
57192;BME280;43052;52.588;13.396;2023-03-04T04:49:35;101168.69;;;4.38;69.49
57192;BME280;43052;52.588;13.396;2023-03-04T04:52:00;101166.09;;;4.38;69.55
57192;BME280;43052;52.588;13.396;2023-03-04T04:54:25;101168.88;;;4.45;69.48
57192;BME280;43052;52.588;13.396;2023-03-04T04:56:50;101154.44;;;4.54;69.36
57192;BME280;43052;52.588;13.396;2023-03-04T04:59:15;101158.72;;;4.54;69.25
57192;BME280;43052;52.588;13.396;2023-03-04T05:01:40;101165.59;;;4.52;69.34
57192;BME280;43052;52.588;13.396;2023-03-04T05:04:06;101158.56;;;4.48;69.40
57192;BME280;43052;52.588;13.396;2023-03-04T05:06:31;101155.94;;;4.46;69.64
57192;BME280;43052;52.588;13.396;2023-03-04T05:08:56;101159.41;;;4.47;69.68
57192;BME280;43052;52.588;13.396;2023-03-04T05:11:21;101157.72;;;4.47;69.80
57192;BME280;43052;52.588;13.396;2023-03-04T05:13:47;101157.72;;;4.47;69.69
57192;BME280;43052;52.588;13.396;2023-03-04T05:16:12;101146.63;;;4.53;69.45
57192;BME280;43052;52.588;13.396;2023-03-04T05:18:38;101145.00;;;4.57;69.62
57192;BME280;43052;52.588;13.396;2023-03-04T05:21:03;101155.41;;;4.60;69.56
57192;BME280;43052;52.588;13.396;2023-03-04T05:23:29;101152.75;;;4.57;69.53
57192;BME280;43052;52.588;13.396;2023-03-04T05:25:55;101155.28;;;4.55;69.79
57192;BME280;43052;52.588;13.396;2023-03-04T05:28:20;101144.94;;;4.55;69.59
57192;BME280;43052;52.588;13.396;2023-03-04T05:30:45;101145.03;;;4.58;69.80
57192;BME280;43052;52.588;13.396;2023-03-04T05:33:11;101152.91;;;4.63;69.51
57192;BME280;43052;52.588;13.396;2023-03-04T05:35:37;101152.06;;;4.62;69.72
57192;BME280;43052;52.588;13.396;2023-03-04T05:38:03;101148.56;;;4.62;69.58
57192;BME280;43052;52.588;13.396;2023-03-04T05:40:29;101146.78;;;4.59;69.78
57192;BME280;43052;52.588;13.396;2023-03-04T05:42:54;101146.88;;;4.62;69.93
57192;BME280;43052;52.588;13.396;2023-03-04T05:45:20;101148.69;;;4.66;69.90
57192;BME280;43052;52.588;13.396;2023-03-04T05:47:45;101145.16;;;4.64;70.13
57192;BME280;43052;52.588;13.396;2023-03-04T05:50:10;101146.91;;;4.64;69.87
57192;BME280;43052;52.588;13.396;2023-03-04T05:52:36;101143.47;;;4.65;69.94
57192;BME280;43052;52.588;13.396;2023-03-04T05:55:01;101137.41;;;4.64;70.33
57192;BME280;43052;52.588;13.396;2023-03-04T05:57:26;101141.72;;;4.64;70.15
57192;BME280;43052;52.588;13.396;2023-03-04T05:59:51;101146.13;;;4.68;70.01
57192;BME280;43052;52.588;13.396;2023-03-04T06:02:16;101150.47;;;4.69;70.19
57192;BME280;43052;52.588;13.396;2023-03-04T06:04:41;101144.41;;;4.67;70.32
57192;BME280;43052;52.588;13.396;2023-03-04T06:07:07;101144.41;;;4.68;70.39
57192;BME280;43052;52.588;13.396;2023-03-04T06:09:32;101141.84;;;4.68;70.43
57192;BME280;43052;52.588;13.396;2023-03-04T06:11:57;101142.66;;;4.67;70.70
57192;BME280;43052;52.588;13.396;2023-03-04T06:14:22;101142.66;;;4.67;70.71
57192;BME280;43052;52.588;13.396;2023-03-04T06:16:47;101147.09;;;4.72;70.78
57192;BME280;43052;52.588;13.396;2023-03-04T06:19:12;101148.00;;;4.74;70.88
57192;BME280;43052;52.588;13.396;2023-03-04T06:21:38;101156.69;;;4.76;70.58
57192;BME280;43052;52.588;13.396;2023-03-04T06:24:03;101153.97;;;4.71;71.02
57192;BME280;43052;52.588;13.396;2023-03-04T06:26:28;101146.97;;;4.67;70.98
57192;BME280;43052;52.588;13.396;2023-03-04T06:28:53;101146.00;;;4.63;71.14
57192;BME280;43052;52.588;13.396;2023-03-04T06:31:20;101149.50;;;4.64;71.62
57192;BME280;43052;52.588;13.396;2023-03-04T06:33:46;101145.25;;;4.67;71.57
57192;BME280;43052;52.588;13.396;2023-03-04T06:36:11;101150.56;;;4.74;71.84
57192;BME280;43052;52.588;13.396;2023-03-04T06:38:36;101149.84;;;4.79;71.92
57192;BME280;43052;52.588;13.396;2023-03-04T06:41:19;101148.28;;;4.84;71.68
57192;BME280;43052;52.588;13.396;2023-03-04T06:43:44;101154.47;;;4.91;71.77
57192;BME280;43052;52.588;13.396;2023-03-04T06:46:10;101153.72;;;4.97;71.53
57192;BME280;43052;52.588;13.396;2023-03-04T06:48:35;101153.09;;;5.06;71.73
57192;BME280;43052;52.588;13.396;2023-03-04T06:51:04;101152.41;;;5.14;71.31
57192;BME280;43052;52.588;13.396;2023-03-04T06:53:30;101161.19;;;5.20;71.26
57192;BME280;43052;52.588;13.396;2023-03-04T06:55:55;101159.53;;;5.23;71.36
57192;BME280;43052;52.588;13.396;2023-03-04T06:58:20;101152.50;;;5.17;71.39
57192;BME280;43052;52.588;13.396;2023-03-04T07:00:45;101166.41;;;5.23;71.67
57192;BME280;43052;52.588;13.396;2023-03-04T07:03:11;101157.91;;;5.28;71.48
57192;BME280;43052;52.588;13.396;2023-03-04T07:05:36;101169.19;;;5.29;71.74
57192;BME280;43052;52.588;13.396;2023-03-04T07:08:01;101167.56;;;5.36;71.80
57192;BME280;43052;52.588;13.396;2023-03-04T07:10:27;101164.25;;;5.41;71.54
57192;BME280;43052;52.588;13.396;2023-03-04T07:12:52;101164.25;;;5.41;71.55
57192;BME280;43052;52.588;13.396;2023-03-04T07:15:17;101170.84;;;5.27;71.58
57192;BME280;43052;52.588;13.396;2023-03-04T07:17:42;101174.91;;;5.15;71.94
57192;BME280;43052;52.588;13.396;2023-03-04T07:20:08;101173.88;;;5.09;72.35
57192;BME280;43052;52.588;13.396;2023-03-04T07:22:33;101176.44;;;5.07;72.76
57192;BME280;43052;52.588;13.396;2023-03-04T07:24:58;101172.19;;;5.09;72.59
57192;BME280;43052;52.588;13.396;2023-03-04T07:27:23;101175.00;;;5.18;72.92
57192;BME280;43052;52.588;13.396;2023-03-04T07:29:49;101165.94;;;5.39;72.79
57192;BME280;43052;52.588;13.396;2023-03-04T07:32:14;101169.75;;;5.55;72.37
57192;BME280;43052;52.588;13.396;2023-03-04T07:34:39;101163.81;;;5.61;72.24
57192;BME280;43052;52.588;13.396;2023-03-04T07:37:04;101169.81;;;5.58;72.39
57192;BME280;43052;52.588;13.396;2023-03-04T07:39:30;101167.13;;;5.54;72.80
57192;BME280;43052;52.588;13.396;2023-03-04T07:41:55;101174.16;;;5.59;72.91
57192;BME280;43052;52.588;13.396;2023-03-04T07:44:20;101170.75;;;5.62;72.72
57192;BME280;43052;52.588;13.396;2023-03-04T07:46:45;101173.28;;;5.60;72.97
57192;BME280;43052;52.588;13.396;2023-03-04T07:49:11;101169.09;;;5.65;73.11
57192;BME280;43052;52.588;13.396;2023-03-04T07:51:37;101161.44;;;5.72;73.12
57192;BME280;43052;52.588;13.396;2023-03-04T07:54:02;101154.72;;;5.82;72.95
57192;BME280;43052;52.588;13.396;2023-03-04T07:56:29;101158.47;;;5.96;73.03
57192;BME280;43052;52.588;13.396;2023-03-04T07:58:55;101167.47;;;6.12;72.76
57192;BME280;43052;52.588;13.396;2023-03-04T08:01:27;101166.84;;;6.25;72.62
57192;BME280;43052;52.588;13.396;2023-03-04T08:03:53;101161.06;;;6.39;72.22
57192;BME280;43052;52.588;13.396;2023-03-04T08:06:18;101154.13;;;6.39;71.93
57192;BME280;43052;52.588;13.396;2023-03-04T08:08:44;101146.16;;;6.32;71.90
57192;BME280;43052;52.588;13.396;2023-03-04T08:11:11;101154.72;;;6.24;72.19
57192;BME280;43052;52.588;13.396;2023-03-04T08:13:36;101153.69;;;6.16;71.92
57192;BME280;43052;52.588;13.396;2023-03-04T08:16:01;101158.81;;;6.13;72.06
57192;BME280;43052;52.588;13.396;2023-03-04T08:18:27;101150.19;;;6.14;72.10
57192;BME280;43052;52.588;13.396;2023-03-04T08:20:52;101152.66;;;6.08;72.33
57192;BME280;43052;52.588;13.396;2023-03-04T08:23:17;101145.72;;;6.07;72.25
57192;BME280;43052;52.588;13.396;2023-03-04T08:25:43;101148.22;;;6.01;72.22
57192;BME280;43052;52.588;13.396;2023-03-04T08:28:09;101152.28;;;5.91;71.97
57192;BME280;43052;52.588;13.396;2023-03-04T08:30:34;101153.13;;;5.88;72.24
57192;BME280;43052;52.588;13.396;2023-03-04T08:33:00;101144.56;;;5.92;72.06
57192;BME280;43052;52.588;13.396;2023-03-04T08:35:25;101143.97;;;6.06;71.88
57192;BME280;43052;52.588;13.396;2023-03-04T08:37:51;101146.72;;;6.14;71.39
57192;BME280;43052;52.588;13.396;2023-03-04T08:40:16;101142.38;;;6.13;71.36
57192;BME280;43052;52.588;13.396;2023-03-04T08:42:41;101149.31;;;6.12;71.23
57192;BME280;43052;52.588;13.396;2023-03-04T08:45:07;101152.78;;;6.14;71.03
57192;BME280;43052;52.588;13.396;2023-03-04T08:47:32;101138.19;;;6.19;71.02
57192;BME280;43052;52.588;13.396;2023-03-04T08:49:57;101140.97;;;6.30;70.68
57192;BME280;43052;52.588;13.396;2023-03-04T08:52:23;101134.16;;;6.37;70.45
57192;BME280;43052;52.588;13.396;2023-03-04T08:54:48;101135.16;;;6.45;70.04
57192;BME280;43052;52.588;13.396;2023-03-04T08:57:14;101134.44;;;6.54;69.93
57192;BME280;43052;52.588;13.396;2023-03-04T08:59:39;101131.16;;;6.64;69.39
57192;BME280;43052;52.588;13.396;2023-03-04T09:02:04;101126.16;;;6.77;69.11
57192;BME280;43052;52.588;13.396;2023-03-04T09:04:29;101128.97;;;6.90;68.65
57192;BME280;43052;52.588;13.396;2023-03-04T09:06:54;101124.78;;;7.00;67.74
57192;BME280;43052;52.588;13.396;2023-03-04T09:09:19;101122.25;;;7.06;67.07
57192;BME280;43052;52.588;13.396;2023-03-04T09:11:45;101122.41;;;7.16;66.58
57192;BME280;43052;52.588;13.396;2023-03-04T09:16:35;101115.50;;;7.16;64.60
57192;BME280;43052;52.588;13.396;2023-03-04T09:19:00;101127.66;;;7.17;64.33
57192;BME280;43052;52.588;13.396;2023-03-04T09:21:26;101122.53;;;7.24;63.82
57192;BME280;43052;52.588;13.396;2023-03-04T09:23:51;101130.34;;;7.25;62.59
57192;BME280;43052;52.588;13.396;2023-03-04T09:26:20;101133.72;;;7.19;61.71
57192;BME280;43052;52.588;13.396;2023-03-04T09:28:49;101139.81;;;7.21;61.52
57192;BME280;43052;52.588;13.396;2023-03-04T09:31:15;101130.25;;;7.19;60.03
57192;BME280;43052;52.588;13.396;2023-03-04T09:33:40;101136.25;;;7.15;59.56
57192;BME280;43052;52.588;13.396;2023-03-04T09:36:08;101146.66;;;7.13;59.50
57192;BME280;43052;52.588;13.396;2023-03-04T09:38:33;101151.13;;;7.22;59.52
57192;BME280;43052;52.588;13.396;2023-03-04T09:41:02;101152.09;;;7.30;59.49
57192;BME280;43052;52.588;13.396;2023-03-04T09:43:29;101141.72;;;7.33;59.21
57192;BME280;43052;52.588;13.396;2023-03-04T09:45:59;101152.38;;;7.50;59.33
57192;BME280;43052;52.588;13.396;2023-03-04T09:48:27;101145.66;;;7.69;59.17
57192;BME280;43052;52.588;13.396;2023-03-04T09:51:32;101135.44;;;7.85;58.15
57192;BME280;43052;52.588;13.396;2023-03-04T09:54:07;101149.44;;;7.95;57.15
57192;BME280;43052;52.588;13.396;2023-03-04T09:56:36;101152.00;;;7.90;56.80
57192;BME280;43052;52.588;13.396;2023-03-04T10:01:47;101142.44;;;7.88;56.73
57192;BME280;43052;52.588;13.396;2023-03-04T10:04:24;101142.38;;;7.86;56.18
57192;BME280;43052;52.588;13.396;2023-03-04T10:06:52;101149.41;;;7.90;56.24
57192;BME280;43052;52.588;13.396;2023-03-04T10:09:28;101153.75;;;7.91;55.34
57192;BME280;43052;52.588;13.396;2023-03-04T10:12:02;101140.69;;;7.88;55.45
57192;BME280;43052;52.588;13.396;2023-03-04T10:14:33;101136.50;;;8.03;55.78
57192;BME280;43052;52.588;13.396;2023-03-04T10:17:08;101141.00;;;8.18;54.93
57192;BME280;43052;52.588;13.396;2023-03-04T10:22:18;101145.66;;;8.48;53.44
57192;BME280;43052;52.588;13.396;2023-03-04T10:24:46;101133.63;;;8.58;53.53
57192;BME280;43052;52.588;13.396;2023-03-04T10:27:15;101139.00;;;8.76;53.39
57192;BME280;43052;52.588;13.396;2023-03-04T10:29:41;101137.19;;;8.74;53.08
57192;BME280;43052;52.588;13.396;2023-03-04T10:32:11;101138.94;;;8.73;53.15
57192;BME280;43052;52.588;13.396;2023-03-04T10:34:38;101135.50;;;8.77;53.14
57192;BME280;43052;52.588;13.396;2023-03-04T10:37:06;101136.53;;;8.98;52.80
57192;BME280;43052;52.588;13.396;2023-03-04T10:39:35;101146.16;;;9.10;52.08
57192;BME280;43052;52.588;13.396;2023-03-04T10:42:03;101140.88;;;8.98;52.27
57192;BME280;43052;52.588;13.396;2023-03-04T10:44:30;101145.25;;;9.00;52.31
57192;BME280;43052;52.588;13.396;2023-03-04T10:46:57;101130.44;;;8.99;52.36
57192;BME280;43052;52.588;13.396;2023-03-04T10:49:24;101132.22;;;9.06;51.95
57192;BME280;43052;52.588;13.396;2023-03-04T10:51:53;101126.16;;;9.07;51.88
57192;BME280;43052;52.588;13.396;2023-03-04T10:54:35;101142.66;;;9.08;51.13
57192;BME280;43052;52.588;13.396;2023-03-04T10:57:12;101141.75;;;8.98;50.81
57192;BME280;43052;52.588;13.396;2023-03-04T10:59:45;101131.38;;;9.07;50.64
57192;BME280;43052;52.588;13.396;2023-03-04T11:02:26;101138.41;;;9.16;50.30
57192;BME280;43052;52.588;13.396;2023-03-04T11:05:04;101147.16;;;9.32;50.03
57192;BME280;43052;52.588;13.396;2023-03-04T11:07:30;101140.22;;;9.28;49.30
57192;BME280;43052;52.588;13.396;2023-03-04T11:10:07;101141.94;;;9.28;49.67
57192;BME280;43052;52.588;13.396;2023-03-04T11:12:33;101145.44;;;9.34;49.45
57192;BME280;43052;52.588;13.396;2023-03-04T11:15:00;101139.44;;;9.45;49.08
57192;BME280;43052;52.588;13.396;2023-03-04T11:17:28;101136.75;;;9.35;48.80
57192;BME280;43052;52.588;13.396;2023-03-04T11:20:16;101137.47;;;9.09;49.43
57192;BME280;43052;52.588;13.396;2023-03-04T11:22:45;101151.22;;;8.87;49.70
57192;BME280;43052;52.588;13.396;2023-03-04T11:25:30;101144.91;;;8.58;49.94
57192;BME280;43052;52.588;13.396;2023-03-04T11:28:20;101148.38;;;8.56;50.52
57192;BME280;43052;52.588;13.396;2023-03-04T11:30:55;101149.25;;;8.61;50.50
57192;BME280;43052;52.588;13.396;2023-03-04T11:33:32;101148.38;;;8.57;50.58
57192;BME280;43052;52.588;13.396;2023-03-04T11:38:47;101141.34;;;8.49;50.35
57192;BME280;43052;52.588;13.396;2023-03-04T11:41:37;101146.63;;;8.56;49.83
57192;BME280;43052;52.588;13.396;2023-03-04T11:44:07;101151.13;;;8.74;49.07
57192;BME280;43052;52.588;13.396;2023-03-04T11:49:54;101146.22;;;9.16;48.73
57192;BME280;43052;52.588;13.396;2023-03-04T11:52:43;101151.56;;;9.36;48.34
57192;BME280;43052;52.588;13.396;2023-03-04T11:55:20;101151.63;;;9.50;48.18
57192;BME280;43052;52.588;13.396;2023-03-04T11:58:25;101152.44;;;9.38;48.02
57192;BME280;43052;52.588;13.396;2023-03-04T12:01:27;101145.38;;;9.19;47.79
57192;BME280;43052;52.588;13.396;2023-03-04T12:04:05;101142.66;;;9.06;47.97
57192;BME280;43052;52.588;13.396;2023-03-04T12:06:55;101140.00;;;8.97;47.84
57192;BME280;43052;52.588;13.396;2023-03-04T12:12:28;101139.28;;;9.20;47.81
57192;BME280;43052;52.588;13.396;2023-03-04T12:21:01;101138.28;;;8.98;47.83
57192;BME280;43052;52.588;13.396;2023-03-04T12:26:29;101144.25;;;8.81;48.76
57192;BME280;43052;52.588;13.396;2023-03-04T12:35:03;101147.91;;;8.12;48.76
57192;BME280;43052;52.588;13.396;2023-03-04T12:37:56;101147.59;;;7.84;48.29
57192;BME280;43052;52.588;13.396;2023-03-04T12:40:33;101131.00;;;7.76;48.52
57192;BME280;43052;52.588;13.396;2023-03-04T12:43:08;101144.19;;;7.89;48.43
57192;BME280;43052;52.588;13.396;2023-03-04T12:46:02;101139.94;;;7.98;47.97
57192;BME280;43052;52.588;13.396;2023-03-04T12:48:31;101146.16;;;8.11;47.72
57192;BME280;43052;52.588;13.396;2023-03-04T12:57:11;101153.84;;;8.00;47.25
57192;BME280;43052;52.588;13.396;2023-03-04T13:00:07;101143.38;;;7.96;47.14
57192;BME280;43052;52.588;13.396;2023-03-04T13:05:52;101147.59;;;7.84;47.32
57192;BME280;43052;52.588;13.396;2023-03-04T13:08:40;101150.25;;;7.89;47.66
57192;BME280;43052;52.588;13.396;2023-03-04T13:16:47;101141.44;;;7.78;47.14
57192;BME280;43052;52.588;13.396;2023-03-04T13:22:31;101146.81;;;7.92;47.16
57192;BME280;43052;52.588;13.396;2023-03-04T13:24:58;101157.25;;;7.93;47.28
57192;BME280;43052;52.588;13.396;2023-03-04T13:32:55;101157.97;;;7.81;47.50
57192;BME280;43052;52.588;13.396;2023-03-04T13:35:46;101156.03;;;7.65;47.73
57192;BME280;43052;52.588;13.396;2023-03-04T13:43:54;101158.88;;;7.20;48.07
57192;BME280;43052;52.588;13.396;2023-03-04T13:56:35;101159.53;;;7.05;49.14
57192;BME280;43052;52.588;13.396;2023-03-04T14:04:19;101151.94;;;7.19;48.77
57192;BME280;43052;52.588;13.396;2023-03-04T14:06:47;101146.63;;;7.12;48.70
57192;BME280;43052;52.588;13.396;2023-03-04T14:09:20;101150.91;;;7.08;48.87
57192;BME280;43052;52.588;13.396;2023-03-04T14:11:47;101148.25;;;7.05;48.83
57192;BME280;43052;52.588;13.396;2023-03-04T14:14:23;101152.56;;;7.03;49.08